Time;durP1;ratioP1;P1;durP2;ratioP2;P2;SDS_P1;SDS_P2;PMS_P1;PMS_P2;Temp;Humidity;BMP_temperature;BMP_pressure;BME280_temperature;BME280_humidity;BME280_pressure;Samples;Min_cycle;Max_cycle;Signal;HPM_P1;HPM_P2
2023/10/09 00:01:13;;;;;;;4.90;3.15;;;13.50;93.10;;;;;;6238436;23;20016;-75
2023/10/09 00:04:01;;;;;;;4.32;2.50;;;13.50;93.20;;;;;;6241469;23;20340;-75
2023/10/09 00:06:47;;;;;;;4.25;2.88;;;13.40;93.30;;;;;;6238138;23;20346;-75
2023/10/09 00:09:46;;;;;;;3.35;2.05;;;13.40;93.50;;;;;;6238744;23;20008;-74
2023/10/09 00:12:32;;;;;;;6.07;2.70;;;13.40;93.70;;;;;;6239913;23;20070;-74
2023/10/09 00:15:20;;;;;;;7.40;3.20;;;13.40;93.90;;;;;;6238545;23;20012;-74
2023/10/09 00:18:06;;;;;;;4.25;2.40;;;13.50;94.10;;;;;;6240638;23;20048;-74
2023/10/09 00:20:54;;;;;;;6.25;3.30;;;13.40;94.20;;;;;;6241213;23;20115;-74
2023/10/09 00:23:41;;;;;;;4.28;2.40;;;13.40;94.40;;;;;;6238806;23;20018;-74
2023/10/09 00:26:29;;;;;;;3.85;2.28;;;13.40;94.60;;;;;;6238280;23;20015;-72
2023/10/09 00:29:22;;;;;;;4.90;2.72;;;13.40;94.80;;;;;;6239238;23;20087;-72
2023/10/09 00:32:15;;;;;;;5.93;2.42;;;13.40;95.00;;;;;;6238331;23;20091;-71
2023/10/09 00:35:36;;;;;;;6.07;2.60;;;13.40;95.30;;;;;;6239238;23;20012;-71
2023/10/09 00:38:33;;;;;;;;;;;13.40;95.50;;;;;;6238902;23;20036;-73
2023/10/09 00:41:20;;;;;;;5.63;3.00;;;13.40;95.10;;;;;;6239690;23;19937;-73
2023/10/09 00:44:07;;;;;;;4.85;2.60;;;13.30;95.50;;;;;;6238308;23;20016;-73
2023/10/09 00:46:54;;;;;;;4.93;2.80;;;13.30;95.90;;;;;;6238916;23;20012;-73
2023/10/09 00:49:42;;;;;;;6.40;3.08;;;13.30;96.10;;;;;;6238519;23;20011;-73
2023/10/09 00:52:43;;;;;;;4.70;3.17;;;13.30;96.30;;;;;;6239261;23;20020;-73
2023/10/09 00:58:30;;;;;;;5.43;2.88;;;13.20;96.70;;;;;;6239177;23;20404;-73
2023/10/09 01:01:17;;;;;;;6.50;3.00;;;13.20;96.80;;;;;;6238171;23;20024;-73
2023/10/09 01:04:10;;;;;;;4.05;2.67;;;13.20;96.90;;;;;;6240809;23;20004;-74
2023/10/09 01:07:15;;;;;;;5.10;2.80;;;13.20;97.10;;;;;;6238050;23;20012;-74
2023/10/09 01:10:09;;;;;;;4.93;2.78;;;13.10;97.30;;;;;;6239239;23;20005;-74
2023/10/09 01:12:55;;;;;;;5.32;3.22;;;13.10;97.30;;;;;;6239470;23;20084;-74
2023/10/09 01:15:44;;;;;;;3.90;2.50;;;13.10;97.50;;;;;;6237910;22;20096;-74
2023/10/09 01:18:35;;;;;;;6.05;3.20;;;13.00;97.70;;;;;;6238742;23;20468;-73
2023/10/09 01:21:24;;;;;;;4.72;2.67;;;13.00;98.00;;;;;;6238075;23;20095;-74
2023/10/09 01:24:10;;;;;;;5.65;2.95;;;13.00;98.10;;;;;;6241210;23;20354;-73
2023/10/09 01:26:59;;;;;;;5.65;3.10;;;13.00;98.30;;;;;;6238978;23;20390;-73
2023/10/09 01:29:45;;;;;;;4.50;2.50;;;13.00;98.60;;;;;;6240598;23;20014;-74
2023/10/09 01:32:34;;;;;;;4.63;2.58;;;12.90;98.70;;;;;;6240985;23;20016;-73
2023/10/09 01:35:21;;;;;;;3.65;2.65;;;12.90;98.60;;;;;;6241033;23;20008;-74
2023/10/09 01:38:13;;;;;;;6.28;2.67;;;12.90;98.70;;;;;;6241044;23;20016;-74
2023/10/09 01:41:08;;;;;;;3.65;2.35;;;12.80;98.90;;;;;;6240828;23;20024;-74
2023/10/09 01:44:00;;;;;;;4.60;2.47;;;12.80;99.10;;;;;;6238170;23;20354;-74
2023/10/09 01:46:46;;;;;;;6.53;3.17;;;12.80;99.40;;;;;;6238424;23;20438;-74
2023/10/09 01:49:35;;;;;;;3.78;2.30;;;12.80;99.30;;;;;;6239732;23;20013;-74
2023/10/09 01:52:21;;;;;;;5.80;2.78;;;12.80;99.40;;;;;;6238753;23;20004;-74
2023/10/09 01:55:10;;;;;;;7.25;3.20;;;12.70;99.50;;;;;;6238309;23;20008;-74
2023/10/09 01:58:02;;;;;;;6.47;2.65;;;12.70;99.60;;;;;;6237329;23;20035;-74
2023/10/09 02:01:01;;;;;;;4.72;2.38;;;12.70;99.70;;;;;;6239060;23;20454;-74
2023/10/09 02:03:51;;;;;;;6.75;2.72;;;12.70;99.90;;;;;;6240322;23;20532;-75
2023/10/09 02:06:37;;;;;;;5.47;2.60;;;12.70;99.90;;;;;;6240494;23;20016;-75
2023/10/09 02:09:30;;;;;;;5.28;3.15;;;12.70;99.90;;;;;;6237971;23;20012;-75
2023/10/09 02:12:17;;;;;;;4.53;2.70;;;12.70;99.90;;;;;;6239145;23;20071;-73
2023/10/09 02:15:15;;;;;;;3.92;2.33;;;12.70;99.90;;;;;;6239963;23;20012;-74
2023/10/09 02:18:16;;;;;;;3.58;2.42;;;12.70;99.90;;;;;;6239839;23;20022;-74
2023/10/09 02:21:12;;;;;;;6.25;2.72;;;12.70;99.90;;;;;;6239578;23;20023;-70
2023/10/09 02:24:02;;;;;;;5.18;2.38;;;12.70;99.90;;;;;;6241662;23;20016;-71
2023/10/09 02:29:38;;;;;;;3.55;2.60;;;12.70;99.90;;;;;;6240533;23;20595;-71
2023/10/09 02:32:28;;;;;;;6.40;2.50;;;12.70;99.90;;;;;;6242533;23;20095;-71
2023/10/09 02:38:22;;;;;;;4.38;2.30;;;12.70;99.90;;;;;;6239989;23;20070;-73
2023/10/09 02:44:10;;;;;;;3.35;2.55;;;12.70;99.90;;;;;;6240628;23;20043;-73
2023/10/09 02:46:58;;;;;;;4.60;2.75;;;12.70;99.90;;;;;;6240332;23;20087;-73
2023/10/09 02:49:45;;;;;;;3.47;2.50;;;12.70;99.90;;;;;;6241553;23;20082;-73
2023/10/09 02:52:40;;;;;;;7.00;2.85;;;12.70;99.90;;;;;;6242042;23;20012;-73
2023/10/09 02:55:27;;;;;;;5.75;3.25;;;12.70;99.90;;;;;;6239607;22;20402;-73
2023/10/09 02:58:20;;;;;;;6.35;2.90;;;12.70;99.90;;;;;;6241835;23;20024;-73
2023/10/09 03:01:15;;;;;;;7.07;3.38;;;12.70;99.90;;;;;;6238641;23;20012;-73
2023/10/09 03:04:02;;;;;;;5.93;2.80;;;12.80;99.90;;;;;;6239053;23;20118;-73
2023/10/09 03:06:51;;;;;;;4.45;2.80;;;12.70;99.90;;;;;;6242434;23;20404;-74
2023/10/09 03:09:38;;;;;;;6.03;3.03;;;12.70;99.90;;;;;;6238981;23;20159;-73
2023/10/09 03:12:27;;;;;;;4.00;2.47;;;12.70;99.90;;;;;;6240584;23;20074;-73
2023/10/09 03:15:13;;;;;;;5.63;2.63;;;12.70;99.90;;;;;;6239747;23;20016;-73
2023/10/09 03:17:59;;;;;;;8.00;3.45;;;12.70;99.90;;;;;;6238820;23;20070;-73
2023/10/09 03:20:46;;;;;;;5.80;3.00;;;12.70;99.90;;;;;;6239447;23;20035;-74
2023/10/09 03:23:34;;;;;;;5.25;2.90;;;12.70;99.90;;;;;;6240428;23;20213;-74
2023/10/09 03:26:20;;;;;;;6.07;3.03;;;12.70;99.90;;;;;;6241129;23;20015;-75
2023/10/09 03:29:10;;;;;;;3.97;2.83;;;12.60;99.90;;;;;;6241693;23;20039;-75
2023/10/09 03:31:56;;;;;;;5.80;3.10;;;12.70;99.90;;;;;;6240285;23;20043;-76
2023/10/09 03:34:43;;;;;;;4.97;2.95;;;12.70;99.90;;;;;;6238863;23;20004;-75
2023/10/09 03:37:35;;;;;;;4.22;2.83;;;12.70;99.90;;;;;;6238767;23;20040;-73
2023/10/09 03:40:21;;;;;;;4.30;3.25;;;12.60;99.90;;;;;;6239136;23;20027;-74
2023/10/09 03:43:10;;;;;;;4.15;2.72;;;12.70;99.90;;;;;;6239373;23;20401;-74
2023/10/09 03:45:57;;;;;;;4.55;2.85;;;12.60;99.90;;;;;;6240360;23;20016;-75
2023/10/09 03:48:46;;;;;;;5.28;2.88;;;12.60;99.90;;;;;;6241416;23;20442;-75
2023/10/09 03:51:32;;;;;;;5.75;2.70;;;12.60;99.90;;;;;;6241566;23;20040;-74
2023/10/09 03:54:22;;;;;;;4.38;2.28;;;12.60;99.90;;;;;;6240922;23;20458;-76
2023/10/09 03:57:08;;;;;;;4.15;2.92;;;12.60;99.90;;;;;;6241529;22;20473;-75
2023/10/09 03:59:55;;;;;;;5.20;3.40;;;12.60;99.90;;;;;;6237856;23;20020;-75
2023/10/09 04:02:41;;;;;;;4.85;2.90;;;12.60;99.90;;;;;;6241322;23;20473;-75
2023/10/09 04:05:28;;;;;;;4.82;2.60;;;12.60;99.90;;;;;;6238536;23;20008;-74
2023/10/09 04:08:19;;;;;;;5.45;3.30;;;12.60;99.90;;;;;;6237455;23;20362;-75
2023/10/09 04:11:15;;;;;;;4.82;2.90;;;12.60;99.90;;;;;;6239816;23;20012;-76
2023/10/09 04:14:10;;;;;;;3.97;2.80;;;12.50;99.90;;;;;;6238801;23;20097;-75
2023/10/09 04:17:42;;;;;;;3.97;2.95;;;12.50;99.90;;;;;;6240879;23;20024;-75
2023/10/09 04:20:47;;;;;;;6.32;3.42;;;12.40;99.90;;;;;;6239405;23;20074;-75
2023/10/09 04:23:34;;;;;;;4.63;3.25;;;12.30;99.90;;;;;;6238295;23;20024;-75
2023/10/09 04:26:20;;;;;;;6.53;3.47;;;12.30;99.90;;;;;;6238139;23;20266;-74
2023/10/09 04:29:10;;;;;;;4.10;3.22;;;12.30;99.90;;;;;;6240710;23;20038;-70
2023/10/09 04:32:00;;;;;;;4.63;3.05;;;12.30;99.90;;;;;;6238078;23;20016;-69
2023/10/09 04:34:49;;;;;;;5.78;2.60;;;12.30;99.90;;;;;;6237527;23;20094;-69
2023/10/09 04:37:38;;;;;;;4.75;2.75;;;12.30;99.90;;;;;;6240080;23;20008;-69
2023/10/09 04:43:29;;;;;;;4.60;3.17;;;12.40;99.90;;;;;;6238182;23;20032;-67
2023/10/09 04:46:23;;;;;;;5.90;2.97;;;12.40;99.90;;;;;;6237625;23;20032;-70
2023/10/09 04:49:27;;;;;;;3.97;3.00;;;12.40;99.90;;;;;;6235458;23;20349;-70
2023/10/09 04:58:09;;;;;;;3.38;2.63;;;12.40;99.90;;;;;;6239850;23;20054;-70
2023/10/09 05:03:44;;;;;;;4.68;2.97;;;12.30;99.90;;;;;;6238973;23;20036;-70
2023/10/09 05:06:42;;;;;;;4.53;2.97;;;12.30;99.90;;;;;;6241041;23;20063;-69
2023/10/09 05:09:55;;;;;;;4.22;2.95;;;12.30;99.90;;;;;;6238403;23;20008;-70
2023/10/09 05:12:34;;;;;;;;;;;12.30;99.90;;;;;;6238258;23;20393;-69
2023/10/09 05:15:26;;;;;;;3.72;2.50;;;12.30;99.90;;;;;;6238462;23;20113;-69
2023/10/09 05:18:16;;;;;;;4.90;3.20;;;12.30;99.90;;;;;;6240546;23;20039;-69
2023/10/09 05:27:45;;;;;;;5.63;3.15;;;12.30;99.90;;;;;;6238491;23;20012;-70
2023/10/09 05:30:24;;;;;;;4.05;2.60;;;12.30;99.90;;;;;;6239399;23;20018;-70
2023/10/09 05:33:28;;;;;;;4.45;2.85;;;12.30;99.90;;;;;;6240195;23;20016;-70
2023/10/09 05:36:35;;;;;;;5.35;3.15;;;12.30;99.90;;;;;;6237195;23;20008;-69
2023/10/09 05:39:41;;;;;;;4.18;2.78;;;12.30;99.90;;;;;;6237336;23;20019;-70
2023/10/09 05:42:42;;;;;;;;;;;12.30;99.90;;;;;;6239810;23;20095;-69
2023/10/09 05:51:42;;;;;;;5.07;2.90;;;12.20;99.90;;;;;;6240306;23;20025;-67
2023/10/09 06:06:55;;;;;;;6.68;2.95;;;12.20;99.90;;;;;;6240958;23;20393;-66
2023/10/09 06:09:52;;;;;;;3.85;2.60;;;12.20;99.90;;;;;;6238879;23;20008;-66
2023/10/09 06:19:07;;;;;;;4.13;2.53;;;12.10;99.90;;;;;;6170844;22;20012;-65
2023/10/09 06:30:28;;;;;;;4.75;2.70;;;12.20;99.90;;;;;;6240465;23;20016;-65
2023/10/09 06:33:29;;;;;;;5.85;2.78;;;12.20;99.90;;;;;;6239825;23;20449;-66
2023/10/09 06:36:17;;;;;;;4.32;2.80;;;12.30;99.90;;;;;;6239234;23;20350;-66
2023/10/09 06:42:31;;;;;;;8.88;2.95;;;12.40;99.90;;;;;;6237321;23;20027;-66
2023/10/09 06:45:16;;;;;;;9.10;3.58;;;12.40;99.90;;;;;;6239532;23;20008;-66
2023/10/09 06:48:40;;;;;;;4.10;3.13;;;12.50;99.90;;;;;;6242160;23;20458;-65
2023/10/09 06:54:15;;;;;;;6.47;3.38;;;12.60;99.90;;;;;;6239642;23;20019;-65
2023/10/09 06:57:13;;;;;;;5.40;3.00;;;12.60;99.90;;;;;;6237957;22;20017;-65
2023/10/09 07:03:11;;;;;;;4.72;3.10;;;12.70;99.90;;;;;;6239138;23;20858;-64
2023/10/09 07:06:23;;;;;;;6.43;2.40;;;12.70;99.90;;;;;;6241864;23;20004;-64
2023/10/09 07:11:59;;;;;;;6.13;2.38;;;12.80;99.90;;;;;;6239803;23;20005;-65
2023/10/09 07:20:38;;;;;;;7.35;3.50;;;13.00;99.90;;;;;;6240779;23;20497;-65
2023/10/09 07:23:28;;;;;;;4.78;2.55;;;13.00;99.90;;;;;;6241204;23;20017;-65
2023/10/09 07:26:23;;;;;;;4.80;2.38;;;13.10;99.90;;;;;;6241695;23;20012;-63
2023/10/09 07:29:21;;;;;;;6.47;3.13;;;13.10;99.90;;;;;;6237277;23;20012;-63
2023/10/09 07:32:12;;;;;;;6.47;2.67;;;13.10;99.90;;;;;;6239881;23;20381;-64
2023/10/09 07:34:59;;;;;;;3.97;2.67;;;13.20;99.90;;;;;;6237900;23;20394;-62
2023/10/09 07:37:50;;;;;;;5.68;2.88;;;13.20;99.90;;;;;;6239634;23;20012;-63
2023/10/09 07:46:32;;;;;;;5.25;2.72;;;13.20;99.90;;;;;;6239971;23;20012;-63
2023/10/09 07:49:25;;;;;;;4.78;2.83;;;13.20;99.90;;;;;;6239542;23;20015;-64
2023/10/09 07:52:11;;;;;;;5.38;2.95;;;13.30;99.90;;;;;;6236563;23;20083;-63
2023/10/09 07:55:06;;;;;;;4.68;2.85;;;13.30;99.90;;;;;;6238134;23;20004;-63
2023/10/09 07:57:53;;;;;;;6.10;3.17;;;13.40;99.90;;;;;;6241357;23;20134;-63
2023/10/09 08:01:06;;;;;;;4.70;3.40;;;13.40;99.90;;;;;;6239240;23;20115;-62
2023/10/09 08:04:01;;;;;;;4.45;3.38;;;13.40;99.90;;;;;;6238333;23;20020;-64
2023/10/09 08:06:47;;;;;;;4.60;3.03;;;13.30;99.90;;;;;;6236560;23;20015;-63
2023/10/09 08:10:43;;;;;;;5.97;3.40;;;13.40;99.90;;;;;;6238919;23;20616;-63
2023/10/09 08:15:52;;;;;;;4.85;3.20;;;13.40;99.90;;;;;;6238940;23;20012;-63
2023/10/09 08:18:44;;;;;;;4.68;3.22;;;13.40;99.90;;;;;;6239020;23;20092;-63
2023/10/09 08:21:42;;;;;;;5.88;2.80;;;13.40;99.90;;;;;;6236776;23;20369;-63
2023/10/09 08:24:55;;;;;;;5.78;2.97;;;13.40;99.90;;;;;;6238464;23;20087;-62
2023/10/09 08:27:54;;;;;;;4.63;3.22;;;13.40;99.90;;;;;;6239090;23;20012;-63
2023/10/09 08:30:50;;;;;;;5.20;2.72;;;13.50;99.90;;;;;;6238442;23;20012;-62
2023/10/09 08:33:42;;;;;;;5.38;3.08;;;13.50;99.90;;;;;;6238169;23;20015;-63
2023/10/09 08:36:36;;;;;;;5.22;2.92;;;13.40;99.90;;;;;;6237803;23;20051;-63
2023/10/09 08:39:25;;;;;;;4.38;2.65;;;13.40;99.90;;;;;;6240699;23;20012;-63
2023/10/09 08:42:11;;;;;;;5.45;2.60;;;13.40;99.90;;;;;;6239463;23;20466;-64
2023/10/09 08:45:00;;;;;;;6.38;2.53;;;13.50;99.90;;;;;;6238017;23;20019;-64
2023/10/09 08:47:49;;;;;;;5.90;3.20;;;13.50;99.90;;;;;;6237917;23;20043;-64
2023/10/09 08:50:36;;;;;;;5.30;3.13;;;13.50;99.90;;;;;;6238366;23;20012;-63
2023/10/09 08:53:31;;;;;;;5.68;3.10;;;13.50;99.90;;;;;;6238123;23;20008;-64
2023/10/09 08:56:26;;;;;;;;;;;13.50;99.90;;;;;;6240157;22;20012;-64
2023/10/09 08:59:12;;;;;;;7.75;3.17;;;13.40;99.90;;;;;;6238734;23;19942;-64
2023/10/09 09:01:59;;;;;;;6.43;3.88;;;13.40;99.90;;;;;;6239325;23;20020;-64
2023/10/09 09:04:50;;;;;;;8.38;4.40;;;13.40;99.90;;;;;;6238527;23;20039;-63
2023/10/09 09:07:39;;;;;;;7.03;4.45;;;13.30;99.90;;;;;;6240336;23;20058;-64
2023/10/09 09:10:35;;;;;;;8.60;3.95;;;13.30;99.90;;;;;;6236980;23;20012;-63
2023/10/09 09:13:21;;;;;;;5.40;3.58;;;13.30;99.90;;;;;;6237894;23;20087;-63
2023/10/09 09:16:29;;;;;;;5.40;3.88;;;13.30;99.90;;;;;;6237899;23;20094;-62
2023/10/09 09:19:18;;;;;;;6.72;3.53;;;13.30;99.90;;;;;;6239303;23;20039;-63
2023/10/09 09:22:12;;;;;;;6.47;3.28;;;13.40;99.90;;;;;;6238795;23;20454;-62
2023/10/09 09:25:09;;;;;;;5.13;3.35;;;13.40;99.90;;;;;;6239420;23;20044;-63
2023/10/09 09:27:57;;;;;;;7.40;3.00;;;13.50;99.90;;;;;;6239130;23;20016;-63
2023/10/09 09:30:43;;;;;;;6.18;3.35;;;13.60;99.90;;;;;;6240005;23;20004;-63
2023/10/09 09:33:42;;;;;;;6.10;3.67;;;13.60;99.90;;;;;;6238049;23;20004;-62
2023/10/09 09:36:33;;;;;;;4.82;3.60;;;13.70;99.90;;;;;;6239107;23;20012;-63
2023/10/09 09:39:28;;;;;;;5.40;3.38;;;13.80;99.90;;;;;;6238779;23;20038;-63
2023/10/09 09:42:14;;;;;;;7.93;3.80;;;13.80;99.90;;;;;;6237750;23;20016;-64
2023/10/09 09:45:04;;;;;;;6.97;3.97;;;13.80;99.90;;;;;;6240491;23;20086;-63
2023/10/09 09:47:54;;;;;;;5.05;3.17;;;13.80;99.90;;;;;;6239018;23;20013;-63
2023/10/09 09:50:45;;;;;;;6.07;3.50;;;13.80;99.90;;;;;;6237964;23;20012;-63
2023/10/09 09:53:34;;;;;;;6.15;3.13;;;13.80;99.90;;;;;;6238159;23;20012;-67
2023/10/09 09:56:24;;;;;;;5.18;3.10;;;13.80;99.90;;;;;;6239321;22;20088;-66
2023/10/09 09:59:21;;;;;;;5.82;3.80;;;13.80;99.90;;;;;;6240456;23;20023;-67
2023/10/09 10:02:16;;;;;;;6.20;3.40;;;13.70;99.90;;;;;;6235577;23;20430;-67
2023/10/09 10:05:06;;;;;;;5.72;3.33;;;13.70;99.90;;;;;;6240506;23;20091;-67
2023/10/09 10:07:55;;;;;;;7.50;3.50;;;13.70;99.90;;;;;;6239893;23;20016;-67
2023/10/09 10:10:57;;;;;;;5.18;3.20;;;13.70;99.90;;;;;;6239262;23;20016;-67
2023/10/09 10:13:43;;;;;;;4.10;2.83;;;13.70;99.90;;;;;;6239962;23;20012;-67
2023/10/09 10:16:34;;;;;;;5.38;3.72;;;13.80;99.90;;;;;;6240601;23;20031;-67
2023/10/09 10:22:29;;;;;;;8.30;4.28;;;13.80;99.90;;;;;;6239223;23;20024;-67
2023/10/09 10:25:32;;;;;;;7.32;3.40;;;13.70;99.90;;;;;;6238203;23;20276;-67
2023/10/09 10:28:38;;;;;;;5.85;3.83;;;13.80;99.90;;;;;;6238060;23;20011;-67
2023/10/09 10:32:08;;;;;;;4.75;3.40;;;13.80;99.90;;;;;;6240374;23;20008;-67
2023/10/09 10:34:57;;;;;;;5.68;3.72;;;13.80;99.90;;;;;;6240094;23;20016;-67
2023/10/09 10:38:00;;;;;;;5.90;3.53;;;13.80;99.90;;;;;;6238946;23;20011;-67
2023/10/09 10:40:46;;;;;;;4.70;3.75;;;13.80;99.90;;;;;;6239203;23;20465;-67
2023/10/09 10:43:32;;;;;;;5.60;3.13;;;13.90;99.90;;;;;;6239245;23;20095;-66
2023/10/09 10:52:01;;;;;;;5.50;3.80;;;14.10;99.90;;;;;;6240528;23;20012;-67
2023/10/09 10:55:03;;;;;;;7.43;4.65;;;14.20;99.90;;;;;;6239323;23;20342;-68
2023/10/09 10:58:00;;;;;;;5.53;3.78;;;14.30;99.90;;;;;;6239553;23;20078;-67
2023/10/09 11:04:08;;;;;;;6.25;4.00;;;14.30;99.90;;;;;;6239806;23;19911;-67
2023/10/09 11:06:51;;;;;;;5.80;3.92;;;14.30;99.90;;;;;;6239232;23;20004;-65
2023/10/09 11:15:46;;;;;;;6.28;3.45;;;14.20;99.90;;;;;;6240223;23;20085;-64
2023/10/09 11:18:42;;;;;;;5.38;3.78;;;14.30;99.90;;;;;;6240857;23;20023;-65
2023/10/09 11:21:32;;;;;;;6.18;3.70;;;14.30;99.90;;;;;;6237104;23;20457;-65
2023/10/09 11:24:27;;;;;;;6.00;4.47;;;14.40;99.90;;;;;;6237262;23;20012;-64
2023/10/09 11:27:18;;;;;;;10.23;4.28;;;14.50;99.90;;;;;;6239906;23;20333;-65
2023/10/09 11:30:09;;;;;;;5.97;4.03;;;14.50;99.90;;;;;;6241098;23;20077;-65
2023/10/09 11:33:07;;;;;;;5.43;4.05;;;14.60;99.90;;;;;;6239877;23;20442;-65
2023/10/09 11:35:57;;;;;;;6.47;4.13;;;14.70;99.90;;;;;;6239883;23;20415;-65
2023/10/09 11:38:48;;;;;;;5.85;3.83;;;14.90;99.90;;;;;;6238800;23;20019;-65
2023/10/09 11:41:41;;;;;;;6.18;4.55;;;14.80;99.90;;;;;;6240459;23;20023;-65
2023/10/09 11:44:39;;;;;;;5.82;4.43;;;14.90;99.90;;;;;;6237158;23;20001;-65
2023/10/09 11:47:34;;;;;;;6.88;4.75;;;14.80;99.90;;;;;;6239553;23;20016;-65
2023/10/09 11:50:30;;;;;;;6.20;5.07;;;14.90;99.90;;;;;;6240482;23;20085;-66
2023/10/09 11:56:14;;;;;;;9.65;4.50;;;15.20;99.90;;;;;;6239422;22;20041;-64
2023/10/09 11:59:04;;;;;;;5.78;4.30;;;15.40;99.90;;;;;;6238900;23;20027;-64
2023/10/09 12:01:52;;;;;;;7.75;5.15;;;15.50;99.90;;;;;;6239169;23;20417;-65
2023/10/09 12:04:42;;;;;;;7.40;5.07;;;15.60;99.90;;;;;;6238418;23;20008;-65
2023/10/09 12:07:27;;;;;;;6.60;5.30;;;15.70;99.90;;;;;;6237866;23;20464;-64
2023/10/09 12:10:24;;;;;;;6.55;4.40;;;15.80;99.90;;;;;;6238176;23;20308;-64
2023/10/09 12:13:10;;;;;;;6.05;4.35;;;15.90;99.90;;;;;;6236631;23;20442;-64
2023/10/09 12:15:57;;;;;;;5.75;4.80;;;16.00;99.90;;;;;;6239422;23;20012;-67
2023/10/09 12:18:52;;;;;;;8.32;4.40;;;16.00;99.90;;;;;;6238016;23;20091;-68
2023/10/09 12:21:42;;;;;;;16.23;4.60;;;16.00;99.90;;;;;;6237375;23;20020;-67
2023/10/09 12:24:29;;;;;;;6.03;4.35;;;16.00;99.90;;;;;;6237599;23;20012;-67
2023/10/09 12:27:20;;;;;;;13.63;4.75;;;15.90;99.90;;;;;;6236940;23;20123;-67
2023/10/09 12:30:06;;;;;;;6.10;4.65;;;15.90;99.90;;;;;;6237212;23;20012;-66
2023/10/09 12:33:02;;;;;;;6.05;4.68;;;15.80;99.90;;;;;;6238088;23;20016;-66
2023/10/09 12:35:48;;;;;;;4.82;3.92;;;15.80;99.90;;;;;;6240501;23;20011;-66
2023/10/09 12:38:34;;;;;;;7.47;5.38;;;15.80;99.90;;;;;;6237581;23;20012;-69
2023/10/09 12:41:26;;;;;;;9.55;5.88;;;15.70;99.90;;;;;;6238263;23;20017;-67
2023/10/09 12:44:14;;;;;;;7.80;5.20;;;15.70;99.90;;;;;;6237796;23;20012;-67
2023/10/09 12:47:04;;;;;;;7.47;5.57;;;15.70;99.90;;;;;;6236883;23;20012;-66
2023/10/09 12:49:53;;;;;;;11.15;7.20;;;15.60;99.90;;;;;;6235048;23;20016;-67
2023/10/09 12:52:40;;;;;;;15.13;5.75;;;15.60;99.90;;;;;;6239491;23;20463;-67
2023/10/09 12:55:31;;;;;;;7.78;6.50;;;15.60;99.90;;;;;;6239829;22;20371;-68
2023/10/09 12:58:18;;;;;;;8.23;6.15;;;15.50;99.90;;;;;;6236554;23;20027;-67
2023/10/09 13:01:11;;;;;;;8.32;5.93;;;15.50;99.90;;;;;;6240201;23;20008;-67
2023/10/09 13:03:59;;;;;;;11.25;7.18;;;15.40;99.90;;;;;;6237993;23;20034;-67
2023/10/09 13:06:46;;;;;;;10.70;6.72;;;15.30;99.90;;;;;;6237848;23;20199;-66
2023/10/09 13:09:36;;;;;;;9.23;6.47;;;15.30;99.90;;;;;;6239085;23;20012;-67
2023/10/09 13:12:23;;;;;;;10.73;6.43;;;15.20;99.90;;;;;;6239360;23;20011;-67
2023/10/09 13:15:10;;;;;;;9.02;6.43;;;15.20;99.90;;;;;;6239610;23;20111;-67
2023/10/09 13:17:56;;;;;;;10.23;6.80;;;15.10;99.90;;;;;;6236786;23;20371;-67
2023/10/09 13:20:41;;;;;;;8.18;6.05;;;15.20;99.90;;;;;;6237478;23;20465;-67
2023/10/09 13:23:38;;;;;;;13.50;7.20;;;15.10;99.90;;;;;;6236012;23;20055;-67
2023/10/09 13:26:28;;;;;;;8.77;6.53;;;15.10;99.90;;;;;;6237520;23;20043;-67
2023/10/09 13:29:14;;;;;;;9.48;6.55;;;15.10;99.90;;;;;;6240293;23;20008;-67
2023/10/09 13:32:02;;;;;;;8.63;6.50;;;15.10;99.90;;;;;;6237953;23;20091;-67
2023/10/09 13:34:49;;;;;;;7.75;5.47;;;15.10;99.90;;;;;;6237457;23;20329;-67
2023/10/09 13:37:37;;;;;;;8.32;6.22;;;15.10;99.90;;;;;;6236847;23;20027;-67
2023/10/09 13:40:29;;;;;;;8.77;6.43;;;15.00;99.90;;;;;;6240332;23;20473;-69
2023/10/09 13:43:16;;;;;;;8.90;6.07;;;15.00;99.90;;;;;;6238610;23;20013;-67
2023/10/09 13:46:03;;;;;;;8.93;6.00;;;15.00;99.90;;;;;;6237627;23;20499;-64
2023/10/09 13:48:52;;;;;;;7.35;5.97;;;15.00;99.90;;;;;;6239387;23;20378;-68
2023/10/09 13:51:43;;;;;;;7.78;5.57;;;15.00;99.90;;;;;;6238277;23;20107;-68
2023/10/09 13:57:22;;;;;;;7.90;5.78;;;14.90;99.90;;;;;;6237036;22;20020;-68
2023/10/09 14:00:10;;;;;;;7.82;5.93;;;14.90;99.90;;;;;;6239208;23;20476;-68
2023/10/09 14:02:56;;;;;;;9.52;6.38;;;14.90;99.90;;;;;;6239416;23;20090;-65
2023/10/09 14:05:54;;;;;;;7.50;5.60;;;14.90;99.90;;;;;;6236563;23;20016;-65
2023/10/09 14:08:41;;;;;;;7.13;5.20;;;14.90;99.90;;;;;;6241158;23;20027;-65
2023/10/09 14:11:27;;;;;;;14.18;6.63;;;14.90;99.90;;;;;;6241448;23;20030;-64
2023/10/09 14:14:16;;;;;;;8.90;5.53;;;14.80;99.90;;;;;;6239069;23;20012;-65
2023/10/09 14:17:02;;;;;;;6.57;4.95;;;14.80;99.90;;;;;;6239692;23;20462;-65
2023/10/09 14:19:47;;;;;;;9.40;5.80;;;14.80;99.90;;;;;;6237808;23;20016;-65
2023/10/09 14:22:38;;;;;;;9.68;5.68;;;14.80;99.90;;;;;;6238798;23;20056;-65
2023/10/09 14:25:24;;;;;;;8.82;6.32;;;14.80;99.90;;;;;;6241631;23;20008;-65
2023/10/09 14:28:10;;;;;;;8.63;6.35;;;14.80;99.90;;;;;;6242154;23;20005;-65
2023/10/09 14:30:59;;;;;;;8.02;6.68;;;14.80;99.90;;;;;;6239642;23;20012;-66
2023/10/09 14:33:51;;;;;;;7.45;5.93;;;14.80;99.90;;;;;;6239743;23;20022;-66
2023/10/09 14:36:43;;;;;;;6.82;5.43;;;14.80;99.90;;;;;;6238588;23;20008;-66
2023/10/09 14:39:29;;;;;;;9.68;5.78;;;14.80;99.90;;;;;;6239261;23;20016;-66
2023/10/09 14:42:16;;;;;;;9.68;6.60;;;14.80;99.90;;;;;;6238499;23;20047;-66
2023/10/09 14:45:08;;;;;;;9.95;5.60;;;14.80;99.90;;;;;;6240545;23;20019;-66
2023/10/09 14:47:54;;;;;;;8.07;6.22;;;14.80;99.90;;;;;;6239130;23;20489;-66
2023/10/09 14:50:49;;;;;;;11.65;6.28;;;14.80;99.90;;;;;;6239973;23;20019;-65
2023/10/09 14:53:35;;;;;;;10.23;6.30;;;14.80;99.90;;;;;;6241463;23;20024;-65
2023/10/09 14:56:28;;;;;;;7.72;5.72;;;14.80;99.90;;;;;;6235142;22;20350;-65
2023/10/09 14:59:14;;;;;;;8.30;5.85;;;14.80;99.90;;;;;;6241293;23;20028;-65
2023/10/09 15:02:01;;;;;;;8.23;5.75;;;14.80;99.90;;;;;;6240746;23;20028;-65
2023/10/09 15:04:47;;;;;;;9.85;6.68;;;14.70;99.90;;;;;;6238428;23;20027;-65
2023/10/09 15:07:33;;;;;;;7.50;6.00;;;14.70;99.90;;;;;;6240796;23;20019;-65
2023/10/09 15:10:20;;;;;;;8.43;6.07;;;14.70;99.90;;;;;;6238593;23;20062;-65
2023/10/09 15:13:06;;;;;;;7.05;6.05;;;14.70;99.90;;;;;;6239106;23;20042;-65
2023/10/09 15:15:52;;;;;;;9.48;6.80;;;14.70;99.90;;;;;;6240842;23;20023;-65
2023/10/09 15:18:40;;;;;;;11.88;6.97;;;14.70;99.90;;;;;;6241456;23;20062;-65
2023/10/09 15:21:32;;;;;;;9.38;7.22;;;14.60;99.90;;;;;;6236625;23;20020;-65
2023/10/09 15:24:20;;;;;;;7.90;6.13;;;14.60;99.90;;;;;;6239304;23;20008;-65
2023/10/09 15:27:06;;;;;;;8.32;6.28;;;14.60;99.90;;;;;;6238371;23;20039;-66
2023/10/09 15:29:55;;;;;;;7.28;5.68;;;14.50;99.90;;;;;;6241929;23;20011;-65
2023/10/09 15:32:41;;;;;;;8.80;7.10;;;14.50;99.90;;;;;;6239113;23;20058;-65
2023/10/09 15:35:33;;;;;;;8.75;6.45;;;14.50;99.90;;;;;;6241138;23;20004;-67
2023/10/09 15:38:19;;;;;;;10.45;6.97;;;14.50;99.90;;;;;;6241006;23;20500;-66
2023/10/09 15:41:06;;;;;;;8.90;6.18;;;14.50;99.90;;;;;;6235445;23;20043;-65
2023/10/09 15:43:52;;;;;;;8.95;6.45;;;14.40;99.90;;;;;;6238263;23;20262;-65
2023/10/09 15:46:37;;;;;;;10.57;6.65;;;14.40;99.90;;;;;;6238199;23;20552;-65
2023/10/09 15:49:23;;;;;;;7.95;6.30;;;14.40;99.90;;;;;;6235883;23;20361;-65
2023/10/09 15:52:13;;;;;;;8.25;6.30;;;14.40;99.90;;;;;;6237700;23;20008;-65
2023/10/09 15:55:00;;;;;;;11.15;6.65;;;14.40;99.90;;;;;;6239311;23;20008;-65
2023/10/09 15:57:52;;;;;;;10.50;7.30;;;14.40;99.90;;;;;;6241020;23;20032;-65
2023/10/09 16:00:39;;;;;;;9.52;6.50;;;14.30;99.90;;;;;;6240708;23;20062;-66
2023/10/09 16:03:27;;;;;;;8.90;7.13;;;14.30;99.90;;;;;;6238874;23;20024;-68
2023/10/09 16:06:15;;;;;;;9.93;5.93;;;14.30;99.90;;;;;;6240881;23;20433;-65
2023/10/09 16:09:01;;;;;;;9.57;6.65;;;14.30;99.90;;;;;;6241091;23;20088;-67
2023/10/09 16:11:48;;;;;;;8.80;6.32;;;14.30;99.90;;;;;;6238569;23;20047;-66
2023/10/09 16:14:36;;;;;;;7.20;5.63;;;14.30;99.90;;;;;;6237629;23;20069;-64
2023/10/09 16:17:24;;;;;;;7.28;6.20;;;14.30;99.90;;;;;;6239614;23;20008;-70
2023/10/09 16:20:25;;;;;;;8.32;6.03;;;14.20;99.90;;;;;;6240556;23;20012;-66
2023/10/09 16:23:12;;;;;;;8.60;5.28;;;14.20;99.90;;;;;;6237803;23;20020;-70
2023/10/09 16:25:59;;;;;;;7.88;6.10;;;14.20;99.90;;;;;;6238767;23;20012;-69
2023/10/09 16:28:48;;;;;;;7.82;5.72;;;14.10;99.90;;;;;;6234370;23;20054;-67
2023/10/09 16:31:35;;;;;;;7.90;5.90;;;14.20;99.90;;;;;;6240043;23;20012;-66
2023/10/09 16:34:25;;;;;;;7.18;5.68;;;14.10;99.90;;;;;;6240353;23;20023;-68
2023/10/09 16:37:13;;;;;;;7.00;5.25;;;14.10;99.90;;;;;;6237531;23;20015;-69
2023/10/09 16:40:05;;;;;;;7.57;5.25;;;14.10;99.90;;;;;;6236615;23;20106;-68
2023/10/09 16:42:53;;;;;;;9.10;5.47;;;14.10;99.90;;;;;;6237197;23;20069;-68
2023/10/09 16:45:43;;;;;;;7.43;5.90;;;14.10;99.90;;;;;;6240945;23;20397;-68